createdAt,value
2022-09-27T00:01:32.432Z,63.40
2022-09-27T00:04:12.611Z,63.40
2022-09-27T00:06:41.175Z,63.50
2022-09-27T00:09:09.226Z,63.50
2022-09-27T00:11:40.205Z,63.60
2022-09-27T00:14:11.779Z,63.60
2022-09-27T00:16:41.552Z,63.60
2022-09-27T00:19:21.138Z,63.70
2022-09-27T00:21:52.880Z,63.60
2022-09-27T00:24:27.809Z,63.60
2022-09-27T00:26:57.602Z,63.60
2022-09-27T00:29:28.605Z,63.60
2022-09-27T00:31:56.907Z,63.50
2022-09-27T00:34:26.553Z,63.60
2022-09-27T00:36:55.520Z,63.60
2022-09-27T00:39:23.673Z,63.60
2022-09-27T00:42:05.471Z,63.60
2022-09-27T00:45:00.254Z,63.50
2022-09-27T00:47:33.482Z,63.70
2022-09-27T00:50:28.512Z,63.60
2022-09-27T00:53:01.358Z,63.40
2022-09-27T00:55:31.231Z,63.20
2022-09-27T00:57:59.296Z,63.20
2022-09-27T01:00:27.423Z,63.20
2022-09-27T01:02:59.763Z,63.30
2022-09-27T01:05:30.391Z,63.20
2022-09-27T01:08:04.156Z,63.30
2022-09-27T01:10:41.997Z,63.40
2022-09-27T01:13:14.055Z,63.30
2022-09-27T01:15:47.287Z,63.40
2022-09-27T01:18:27.409Z,63.50
2022-09-27T01:21:07.029Z,63.40
2022-09-27T01:23:53.155Z,63.30
2022-09-27T01:26:26.464Z,63.30
2022-09-27T01:28:59.167Z,63.20
2022-09-27T01:31:32.649Z,63.10
2022-09-27T01:34:06.579Z,63.00
2022-09-27T01:36:51.326Z,63.00
2022-09-27T01:39:25.167Z,63.10
2022-09-27T01:41:57.437Z,63.10
2022-09-27T01:44:30.917Z,63.00
2022-09-27T01:47:07.752Z,63.00
2022-09-27T01:49:39.933Z,63.00
2022-09-27T01:52:09.176Z,63.00
2022-09-27T01:54:41.689Z,63.10
2022-09-27T02:00:01.205Z,63.00
2022-09-27T02:02:32.334Z,62.90
2022-09-27T02:05:02.593Z,62.80
2022-09-27T02:07:34.176Z,62.80
2022-09-27T02:10:03.878Z,62.90
2022-09-27T02:12:32.643Z,62.80
2022-09-27T02:15:08.275Z,62.70
2022-09-27T02:17:44.420Z,62.60
2022-09-27T02:20:19.207Z,62.70
2022-09-27T02:22:50.384Z,62.80
2022-09-27T02:25:21.527Z,62.80
2022-09-27T02:27:53.653Z,62.90
2022-09-27T02:30:21.701Z,63.10
2022-09-27T02:32:51.632Z,63.20
2022-09-27T02:35:20.788Z,63.30
2022-09-27T02:37:49.059Z,63.40
2022-09-27T02:40:17.216Z,63.30
2022-09-27T02:42:45.606Z,63.30
2022-09-27T02:45:15.059Z,63.40
2022-09-27T02:47:51.219Z,64.00
2022-09-27T02:50:31.424Z,63.40
2022-09-27T02:53:08.049Z,63.40
2022-09-27T02:55:41.796Z,63.50
2022-09-27T02:58:20.937Z,63.50
2022-09-27T03:00:50.349Z,63.50
2022-09-27T03:03:22.484Z,63.40
2022-09-27T03:05:53.478Z,63.40
2022-09-27T03:08:21.477Z,64.10
2022-09-27T03:10:49.650Z,63.50
2022-09-27T03:13:19.997Z,63.60
2022-09-27T03:15:48.222Z,63.60
2022-09-27T03:18:16.132Z,63.60
2022-09-27T03:20:46.259Z,63.60
2022-09-27T03:23:25.450Z,63.70
2022-09-27T03:25:59.198Z,63.50
2022-09-27T03:28:32.306Z,63.50
2022-09-27T03:31:00.350Z,64.00
2022-09-27T03:33:33.750Z,63.30
2022-09-27T03:36:01.821Z,63.20
2022-09-27T03:38:33.874Z,63.20
2022-09-27T03:41:02.004Z,63.10
2022-09-27T03:43:30.006Z,62.90
2022-09-27T03:45:58.068Z,62.80
2022-09-27T03:48:28.251Z,62.60
2022-09-27T03:50:56.459Z,62.40
2022-09-27T03:53:24.739Z,62.40
2022-09-27T03:55:54.134Z,62.40
2022-09-27T03:58:22.208Z,62.50
2022-09-27T04:00:50.440Z,62.40
2022-09-27T04:03:20.004Z,62.20
2022-09-27T04:05:47.906Z,62.00
2022-09-27T04:08:15.860Z,62.00
2022-09-27T04:10:44.188Z,62.20
2022-09-27T04:13:13.571Z,62.20
2022-09-27T04:15:41.530Z,62.10
2022-09-27T04:18:09.583Z,62.00
2022-09-27T04:20:39.772Z,61.90
2022-09-27T04:23:07.945Z,62.10
2022-09-27T04:25:35.861Z,61.90
2022-09-27T04:28:04.132Z,61.80
2022-09-27T04:30:36.531Z,61.70
2022-09-27T04:33:10.263Z,61.80
2022-09-27T04:35:55.633Z,61.90
2022-09-27T04:38:24.222Z,62.20
2022-09-27T04:40:52.288Z,62.30
2022-09-27T04:43:20.201Z,62.40
2022-09-27T04:45:49.589Z,62.30
2022-09-27T04:48:17.648Z,62.20
2022-09-27T04:50:46.795Z,62.10
2022-09-27T04:53:15.786Z,62.20
2022-09-27T04:55:46.070Z,62.30
2022-09-27T04:58:14.187Z,62.30
2022-09-27T05:00:43.179Z,62.50
2022-09-27T05:03:12.723Z,62.50
2022-09-27T05:06:05.570Z,62.40
2022-09-27T05:08:34.060Z,62.40
2022-09-27T05:11:04.962Z,62.20
2022-09-27T05:13:33.478Z,62.20
2022-09-27T05:16:03.707Z,62.30
2022-09-27T05:18:33.552Z,62.30
2022-09-27T05:21:01.956Z,62.20
2022-09-27T05:23:29.982Z,62.10
2022-09-27T05:25:57.865Z,62.10
2022-09-27T05:28:25.880Z,62.20
2022-09-27T05:30:56.794Z,62.30
2022-09-27T05:33:24.861Z,62.20
2022-09-27T05:35:55.440Z,62.10
2022-09-27T05:38:24.270Z,62.20
2022-09-27T05:40:52.478Z,62.20
2022-09-27T05:43:37.345Z,62.20
2022-09-27T05:46:08.755Z,62.30
2022-09-27T05:48:38.679Z,62.30
2022-09-27T05:51:08.262Z,62.30
2022-09-27T05:53:39.226Z,62.10
2022-09-27T05:56:07.599Z,62.00
2022-09-27T05:58:35.517Z,62.10
2022-09-27T06:01:03.435Z,62.00
2022-09-27T06:03:31.503Z,62.00
2022-09-27T06:06:03.827Z,61.90
2022-09-27T06:08:34.395Z,61.80
2022-09-27T06:11:04.336Z,61.80
2022-09-27T06:13:33.360Z,61.90
2022-09-27T06:16:01.434Z,61.80
2022-09-27T06:18:29.289Z,61.90
2022-09-27T06:20:59.812Z,61.90
2022-09-27T06:23:34.606Z,61.80
2022-09-27T06:26:05.238Z,61.60
2022-09-27T06:28:33.199Z,61.60
2022-09-27T06:31:01.662Z,61.60
2022-09-27T06:33:29.929Z,61.60
2022-09-27T06:35:57.924Z,61.40
2022-09-27T06:38:26.552Z,61.30
2022-09-27T06:40:58.227Z,61.20
2022-09-27T06:43:27.612Z,61.20
2022-09-27T06:45:55.744Z,61.20
2022-09-27T06:51:10.845Z,61.20
2022-09-27T06:53:42.023Z,61.10
2022-09-27T06:56:10.911Z,61.00
2022-09-27T06:58:57.900Z,61.10
2022-09-27T07:01:28.718Z,61.10
2022-09-27T07:03:56.805Z,61.00
2022-09-27T07:06:26.123Z,60.90
2022-09-27T07:08:54.579Z,60.80
2022-09-27T07:11:23.391Z,60.90
2022-09-27T07:13:59.453Z,60.90
2022-09-27T07:16:27.387Z,60.90
2022-09-27T07:18:55.274Z,61.00
2022-09-27T07:21:23.167Z,61.00
2022-09-27T07:23:51.144Z,60.80
2022-09-27T07:26:19.104Z,60.80
2022-09-27T07:28:47.093Z,60.80
2022-09-27T07:31:17.149Z,60.90
2022-09-27T07:33:45.099Z,60.70
2022-09-27T07:36:13.806Z,61.00
2022-09-27T07:38:41.709Z,60.90
2022-09-27T07:41:11.043Z,60.80
2022-09-27T07:43:38.872Z,60.40
2022-09-27T07:46:08.012Z,60.10
2022-09-27T07:48:37.311Z,59.80
2022-09-27T07:51:07.708Z,59.30
2022-09-27T07:53:35.610Z,59.10
2022-09-27T07:56:05.163Z,58.60
2022-09-27T07:58:33.328Z,58.60
2022-09-27T08:01:02.701Z,58.40
2022-09-27T08:03:31.703Z,58.30
2022-09-27T08:06:05.298Z,58.20
2022-09-27T08:08:33.322Z,57.60
2022-09-27T08:11:01.205Z,57.20
2022-09-27T08:13:29.548Z,56.80
2022-09-27T08:16:02.312Z,56.40
2022-09-27T08:18:30.337Z,55.80
2022-09-27T08:20:59.811Z,55.30
2022-09-27T08:23:29.494Z,55.60
2022-09-27T08:26:02.702Z,55.30
2022-09-27T08:28:32.795Z,54.90
2022-09-27T08:31:00.810Z,55.10
2022-09-27T08:33:32.358Z,54.70
2022-09-27T08:36:01.799Z,54.40
2022-09-27T08:38:31.571Z,54.20
2022-09-27T08:41:01.008Z,53.70
2022-09-27T08:43:37.675Z,53.00
2022-09-27T08:46:12.246Z,53.20
2022-09-27T08:48:40.555Z,52.70
2022-09-27T08:51:11.928Z,52.40
2022-09-27T08:53:44.446Z,52.60
2022-09-27T08:56:13.556Z,52.70
2022-09-27T08:58:44.998Z,52.10
2022-09-27T09:01:14.534Z,52.10
2022-09-27T09:03:45.317Z,52.10
2022-09-27T09:06:18.084Z,52.30
2022-09-27T09:08:52.345Z,52.50
2022-09-27T09:11:41.506Z,52.80
2022-09-27T09:14:19.811Z,52.50
2022-09-27T09:16:55.878Z,52.50
2022-09-27T09:19:32.313Z,52.10
2022-09-27T09:22:06.352Z,51.70
2022-09-27T09:24:42.474Z,51.70
2022-09-27T09:27:12.899Z,51.50
2022-09-27T09:29:52.886Z,50.20
2022-09-27T09:32:26.731Z,50.30
2022-09-27T09:34:56.042Z,50.20
2022-09-27T09:37:28.064Z,50.50
2022-09-27T09:39:59.417Z,50.50
2022-09-27T09:42:30.385Z,50.70
2022-09-27T09:45:01.015Z,50.50
2022-09-27T09:47:32.737Z,50.70
2022-09-27T09:50:02.135Z,50.40
2022-09-27T09:52:40.109Z,50.50
2022-09-27T09:55:17.858Z,50.30
2022-09-27T09:57:51.284Z,50.70
2022-09-27T10:00:19.932Z,50.90
2022-09-27T10:02:49.843Z,50.70
2022-09-27T10:05:19.567Z,50.60
2022-09-27T10:07:48.318Z,50.30
2022-09-27T10:10:34.583Z,50.60
2022-09-27T10:13:04.931Z,50.40
2022-09-27T10:15:33.048Z,50.60
2022-09-27T10:18:01.082Z,50.70
2022-09-27T10:20:32.235Z,49.90
2022-09-27T10:23:02.623Z,49.60
2022-09-27T10:25:46.201Z,48.80
2022-09-27T10:28:27.337Z,48.90
2022-09-27T10:30:57.164Z,49.00
2022-09-27T10:33:30.063Z,48.80
2022-09-27T10:36:03.605Z,48.60
2022-09-27T10:38:32.968Z,48.10
2022-09-27T10:41:19.117Z,47.70
2022-09-27T10:43:47.486Z,47.70
2022-09-27T10:46:21.206Z,48.00
2022-09-27T10:48:49.374Z,48.30
2022-09-27T10:51:25.116Z,48.30
2022-09-27T10:53:54.008Z,48.30
2022-09-27T10:56:26.092Z,48.60
2022-09-27T10:58:57.147Z,48.80
2022-09-27T11:01:25.356Z,48.00
2022-09-27T11:04:00.642Z,48.30
2022-09-27T11:06:32.244Z,48.50
2022-09-27T11:09:11.941Z,48.80
2022-09-27T11:11:41.234Z,49.00
2022-09-27T11:14:18.447Z,48.50
2022-09-27T11:16:50.028Z,48.80
2022-09-27T11:19:42.692Z,48.70
2022-09-27T11:22:17.784Z,47.40
2022-09-27T11:24:57.703Z,47.20
2022-09-27T11:27:33.124Z,46.80
2022-09-27T11:30:05.299Z,47.00
2022-09-27T11:32:39.883Z,47.00
2022-09-27T11:35:24.822Z,47.30
2022-09-27T11:38:51.602Z,47.00
2022-09-27T11:41:27.150Z,46.80
2022-09-27T11:44:04.769Z,47.20
2022-09-27T11:46:41.206Z,47.00
2022-09-27T11:49:28.697Z,46.80
2022-09-27T11:52:10.839Z,47.20
2022-09-27T11:54:44.661Z,47.10
2022-09-27T11:57:18.738Z,47.00
2022-09-27T12:00:10.950Z,47.10
2022-09-27T12:02:54.272Z,47.40
2022-09-27T12:05:31.614Z,47.70
2022-09-27T12:08:06.787Z,47.70
2022-09-27T12:10:35.142Z,48.00
2022-09-27T12:13:05.457Z,48.20
2022-09-27T12:15:37.415Z,48.30
2022-09-27T12:18:10.648Z,48.40
2022-09-27T12:20:39.547Z,47.80
2022-09-27T12:23:13.092Z,47.10
2022-09-27T12:25:42.736Z,46.90
2022-09-27T12:28:13.261Z,47.30
2022-09-27T12:30:44.994Z,47.40
2022-09-27T12:33:19.589Z,47.40
2022-09-27T12:36:00.883Z,47.60
2022-09-27T12:38:33.645Z,47.60
2022-09-27T12:41:02.694Z,47.30
2022-09-27T12:43:37.309Z,47.30
2022-09-27T12:46:27.651Z,47.30
2022-09-27T12:49:01.240Z,47.30
2022-09-27T12:51:39.227Z,46.90
2022-09-27T12:54:20.687Z,47.10
2022-09-27T12:56:53.053Z,46.90
2022-09-27T12:59:30.916Z,46.70
2022-09-27T13:02:10.367Z,46.50
2022-09-27T13:04:45.980Z,46.70
2022-09-27T13:07:19.522Z,46.80
2022-09-27T13:10:08.669Z,46.80
2022-09-27T13:12:39.768Z,46.90
2022-09-27T13:15:16.532Z,47.20
2022-09-27T13:17:53.329Z,47.00
2022-09-27T13:20:42.588Z,46.80
2022-09-27T13:23:29.780Z,46.90
2022-09-27T13:26:00.959Z,46.80
2022-09-27T13:28:38.141Z,46.30
2022-09-27T13:31:07.057Z,46.00
2022-09-27T13:33:41.643Z,46.50
2022-09-27T13:36:17.604Z,46.60
2022-09-27T13:38:55.131Z,46.30
2022-09-27T13:41:23.150Z,46.40
2022-09-27T13:43:58.598Z,46.30
2022-09-27T13:46:28.072Z,46.30
2022-09-27T13:49:02.312Z,46.50
2022-09-27T13:51:40.958Z,46.70
2022-09-27T13:54:30.062Z,47.20
2022-09-27T13:56:59.012Z,47.30
2022-09-27T13:59:31.436Z,47.40
2022-09-27T14:02:04.239Z,47.50
2022-09-27T14:04:41.755Z,47.70
2022-09-27T14:07:13.607Z,47.60
2022-09-27T14:09:50.387Z,47.40
2022-09-27T14:12:20.805Z,47.40
2022-09-27T14:14:52.312Z,47.10
2022-09-27T14:17:20.456Z,47.30
2022-09-27T14:19:54.656Z,47.60
2022-09-27T14:22:26.636Z,47.90
2022-09-27T14:28:28.940Z,48.90
2022-09-27T14:31:06.905Z,49.30
2022-09-27T14:33:35.730Z,49.80
2022-09-27T14:36:25.254Z,50.10
2022-09-27T14:38:53.145Z,50.50
2022-09-27T14:41:21.081Z,51.00
2022-09-27T14:43:50.688Z,51.30
2022-09-27T14:46:29.010Z,51.40
2022-09-27T14:48:57.036Z,51.80
2022-09-27T14:51:34.821Z,52.10
2022-09-27T14:57:12.527Z,52.10
2022-09-27T15:03:36.449Z,51.90
2022-09-27T15:57:49.976Z,55.90
2022-09-27T16:00:31.210Z,56.30
2022-09-27T16:02:59.497Z,56.20
2022-09-27T16:05:29.956Z,56.40
2022-09-27T16:08:06.586Z,56.40
2022-09-27T16:11:01.165Z,56.30
2022-09-27T16:13:33.539Z,56.40
2022-09-27T16:16:05.037Z,56.60
2022-09-27T16:18:34.097Z,56.60
2022-09-27T16:23:45.051Z,56.90
2022-09-27T16:26:13.863Z,57.20
2022-09-27T16:28:45.484Z,57.50
2022-09-27T16:31:15.189Z,57.90
2022-09-27T16:33:43.261Z,58.20
2022-09-27T16:36:20.830Z,58.20
2022-09-27T16:38:55.876Z,58.20
2022-09-27T16:41:23.921Z,58.30
2022-09-27T16:43:58.639Z,58.40
2022-09-27T16:46:30.427Z,58.50
2022-09-27T16:49:00.538Z,58.60
2022-09-27T16:51:47.682Z,58.70
2022-09-27T16:54:17.647Z,58.80
2022-09-27T16:56:49.549Z,58.80
2022-09-27T16:59:23.498Z,58.90
2022-09-27T17:01:51.912Z,59.00
2022-09-27T17:04:20.468Z,59.00
2022-09-27T17:06:48.822Z,59.00
2022-09-27T17:09:16.749Z,59.10
2022-09-27T17:11:44.818Z,59.20
2022-09-27T17:14:16.635Z,59.20
2022-09-27T17:16:49.234Z,59.20
2022-09-27T17:19:20.039Z,59.30
2022-09-27T17:21:52.383Z,59.40
2022-09-27T17:24:20.397Z,59.50
2022-09-27T17:26:48.438Z,60.00
2022-09-27T17:29:18.808Z,59.40
2022-09-27T17:31:48.266Z,59.30
2022-09-27T17:34:17.179Z,59.00
2022-09-27T17:36:51.322Z,58.90
2022-09-27T17:39:21.155Z,58.80
2022-09-27T17:41:49.257Z,58.70
2022-09-27T17:44:18.572Z,59.30
2022-09-27T17:46:47.222Z,58.50
2022-09-27T17:49:34.160Z,58.60
2022-09-27T17:52:03.569Z,58.60
2022-09-27T17:54:31.591Z,58.70
2022-09-27T17:57:02.745Z,58.90
2022-09-27T17:59:31.131Z,59.10
2022-09-27T18:01:59.339Z,59.10
2022-09-27T18:04:29.005Z,59.10
2022-09-27T18:06:57.413Z,59.00
2022-09-27T18:09:28.334Z,59.20
2022-09-27T18:11:56.461Z,59.20
2022-09-27T18:14:25.566Z,59.30
2022-09-27T18:16:54.466Z,59.30
2022-09-27T18:19:22.615Z,59.30
2022-09-27T18:21:52.497Z,59.20
2022-09-27T18:24:20.413Z,59.30
2022-09-27T18:26:49.185Z,59.30
2022-09-27T18:29:18.337Z,59.30
2022-09-27T18:31:48.937Z,59.10
2022-09-27T18:34:17.518Z,59.20
2022-09-27T18:36:51.689Z,59.30
2022-09-27T18:39:21.076Z,59.10
2022-09-27T18:41:49.518Z,59.20
2022-09-27T18:44:27.637Z,59.30
2022-09-27T18:47:07.732Z,59.30
2022-09-27T18:49:40.861Z,59.50
2022-09-27T18:52:19.701Z,59.70
2022-09-27T18:54:51.579Z,59.70
2022-09-27T18:57:19.458Z,59.70
2022-09-27T18:59:49.450Z,59.60
2022-09-27T19:02:17.376Z,59.50
2022-09-27T19:04:45.786Z,59.40
2022-09-27T19:07:14.490Z,59.50
2022-09-27T19:09:43.497Z,59.60
2022-09-27T19:12:12.816Z,59.70
2022-09-27T19:14:41.228Z,59.80
2022-09-27T19:17:09.353Z,59.90
2022-09-27T19:19:37.372Z,60.00
2022-09-27T19:22:05.600Z,60.00
2022-09-27T19:24:33.848Z,60.00
2022-09-27T19:27:01.882Z,60.00
2022-09-27T19:29:31.168Z,59.90
2022-09-27T19:31:59.551Z,59.90
2022-09-27T19:34:27.980Z,60.00
2022-09-27T19:36:55.866Z,59.90
2022-09-27T19:39:26.203Z,59.90
2022-09-27T19:41:54.076Z,59.90
2022-09-27T19:44:21.924Z,60.00
2022-09-27T19:46:55.233Z,60.10
2022-09-27T19:49:23.220Z,60.20
2022-09-27T19:51:52.110Z,60.30
2022-09-27T19:54:20.096Z,60.50
2022-09-27T19:56:49.328Z,60.60
2022-09-27T19:59:17.383Z,60.40
2022-09-27T20:01:45.364Z,60.40
2022-09-27T20:04:15.066Z,60.40
2022-09-27T20:06:42.945Z,60.30
2022-09-27T20:09:11.037Z,60.30
2022-09-27T20:11:39.084Z,60.40
2022-09-27T20:14:09.000Z,60.40
2022-09-27T20:16:41.069Z,60.40
2022-09-27T20:19:09.674Z,60.40
2022-09-27T20:21:38.979Z,60.50
2022-09-27T20:24:07.089Z,60.50
2022-09-27T20:26:36.597Z,60.50
2022-09-27T20:29:05.539Z,60.60
2022-09-27T20:31:34.339Z,60.70
2022-09-27T20:34:02.355Z,60.70
2022-09-27T20:36:31.257Z,60.70
2022-09-27T20:39:12.158Z,60.70
2022-09-27T20:41:40.879Z,60.60
2022-09-27T20:44:11.922Z,60.60
2022-09-27T20:46:41.904Z,60.60
2022-09-27T20:49:11.090Z,60.80
2022-09-27T20:51:39.980Z,60.90
2022-09-27T20:54:10.182Z,61.00
2022-09-27T20:56:40.592Z,61.00
2022-09-27T20:59:14.608Z,61.10
2022-09-27T21:01:43.343Z,61.10
2022-09-27T21:04:11.258Z,61.10
2022-09-27T21:06:39.277Z,61.70
2022-09-27T21:09:07.718Z,61.30
2022-09-27T21:11:37.347Z,61.30
2022-09-27T21:14:05.408Z,61.30
2022-09-27T21:16:34.838Z,61.30
2022-09-27T21:19:03.210Z,61.30
2022-09-27T21:21:31.104Z,61.20
2022-09-27T21:23:59.704Z,61.20
2022-09-27T21:26:29.090Z,61.30
2022-09-27T21:28:59.059Z,61.30
2022-09-27T21:31:27.675Z,61.40
2022-09-27T21:33:59.952Z,61.40
2022-09-27T21:36:31.511Z,61.40
2022-09-27T21:38:59.644Z,61.40
2022-09-27T21:41:28.116Z,61.40
2022-09-27T21:43:58.404Z,61.50
2022-09-27T21:46:28.849Z,61.60
2022-09-27T21:48:57.423Z,61.50
2022-09-27T21:51:26.362Z,62.10
2022-09-27T21:53:55.389Z,61.70
2022-09-27T21:56:25.606Z,61.70
2022-09-27T21:58:53.680Z,61.70
2022-09-27T22:01:22.841Z,61.70
2022-09-27T22:03:56.443Z,61.70
2022-09-27T22:06:25.166Z,61.50
2022-09-27T22:08:53.981Z,61.50
2022-09-27T22:11:22.772Z,61.30
2022-09-27T22:13:50.584Z,61.40
2022-09-27T22:16:19.888Z,61.30
2022-09-27T22:18:48.398Z,61.30
2022-09-27T22:21:18.877Z,61.20
2022-09-27T22:23:46.688Z,61.10
2022-09-27T22:26:15.323Z,61.10
2022-09-27T22:28:43.618Z,61.20
2022-09-27T22:31:15.293Z,61.40
2022-09-27T22:33:43.755Z,61.50
2022-09-27T22:36:11.829Z,61.40
2022-09-27T22:38:41.585Z,61.40
2022-09-27T22:41:09.701Z,61.20
2022-09-27T22:43:37.549Z,61.10
2022-09-27T22:46:05.843Z,61.00
2022-09-27T22:48:34.262Z,61.00
2022-09-27T22:51:04.434Z,61.10
2022-09-27T22:53:33.143Z,61.20
2022-09-27T22:56:04.550Z,61.30
2022-09-27T22:58:32.929Z,61.40
2022-09-27T23:01:01.124Z,61.60
2022-09-27T23:03:29.027Z,61.50
2022-09-27T23:06:02.357Z,61.50
2022-09-27T23:08:30.152Z,61.50
2022-09-27T23:11:03.673Z,61.60
2022-09-27T23:13:32.158Z,61.40
2022-09-27T23:16:03.629Z,61.50
2022-09-27T23:18:32.687Z,61.50
2022-09-27T23:21:03.494Z,61.50
2022-09-27T23:23:32.249Z,61.60
2022-09-27T23:26:03.575Z,61.60
2022-09-27T23:28:33.182Z,61.50
2022-09-27T23:31:05.005Z,61.50
2022-09-27T23:33:34.040Z,61.50
2022-09-27T23:36:02.503Z,61.50
2022-09-27T23:38:30.766Z,61.50
2022-09-27T23:40:58.810Z,61.40
2022-09-27T23:43:26.746Z,61.40
2022-09-27T23:45:57.108Z,61.40
2022-09-27T23:48:25.603Z,61.40
2022-09-27T23:50:55.051Z,61.50
2022-09-27T23:53:23.130Z,61.50
2022-09-27T23:56:02.072Z,61.40
2022-09-27T23:58:30.274Z,61.50
